sensor_id;sensor_type;location;lat;lon;timestamp;P1;durP1;ratioP1;P2;durP2;ratioP2
10232;SDS011;5161;48.174;11.756;2023-12-20T00:00:19;3.07;;;2.87;;
10232;SDS011;5161;48.174;11.756;2023-12-20T00:02:45;3.47;;;3.17;;
10232;SDS011;5161;48.174;11.756;2023-12-20T00:05:12;3.53;;;3.23;;
10232;SDS011;5161;48.174;11.756;2023-12-20T00:07:39;5.40;;;3.20;;
10232;SDS011;5161;48.174;11.756;2023-12-20T00:10:05;3.40;;;3.20;;
10232;SDS011;5161;48.174;11.756;2023-12-20T00:12:30;3.03;;;2.80;;
10232;SDS011;5161;48.174;11.756;2023-12-20T00:14:56;3.80;;;2.90;;
10232;SDS011;5161;48.174;11.756;2023-12-20T00:17:22;3.43;;;3.13;;
10232;SDS011;5161;48.174;11.756;2023-12-20T00:19:47;3.40;;;3.10;;
10232;SDS011;5161;48.174;11.756;2023-12-20T00:22:13;3.73;;;2.93;;
10232;SDS011;5161;48.174;11.756;2023-12-20T00:24:38;3.40;;;3.13;;
10232;SDS011;5161;48.174;11.756;2023-12-20T00:27:04;3.43;;;3.17;;
10232;SDS011;5161;48.174;11.756;2023-12-20T00:29:29;3.90;;;3.13;;
10232;SDS011;5161;48.174;11.756;2023-12-20T00:31:55;3.40;;;3.10;;
10232;SDS011;5161;48.174;11.756;2023-12-20T00:34:20;4.23;;;3.47;;
10232;SDS011;5161;48.174;11.756;2023-12-20T00:36:46;3.50;;;3.20;;
10232;SDS011;5161;48.174;11.756;2023-12-20T00:39:12;3.20;;;3.00;;
10232;SDS011;5161;48.174;11.756;2023-12-20T00:41:37;3.80;;;3.43;;
10232;SDS011;5161;48.174;11.756;2023-12-20T00:44:03;3.90;;;3.23;;
10232;SDS011;5161;48.174;11.756;2023-12-20T00:46:29;3.30;;;3.10;;
10232;SDS011;5161;48.174;11.756;2023-12-20T00:48:54;3.60;;;3.30;;
10232;SDS011;5161;48.174;11.756;2023-12-20T00:51:20;3.83;;;3.00;;
10232;SDS011;5161;48.174;11.756;2023-12-20T00:53:47;3.40;;;3.10;;
10232;SDS011;5161;48.174;11.756;2023-12-20T00:56:14;3.23;;;2.93;;
10232;SDS011;5161;48.174;11.756;2023-12-20T00:58:39;3.30;;;3.00;;
10232;SDS011;5161;48.174;11.756;2023-12-20T01:01:05;4.07;;;3.30;;
10232;SDS011;5161;48.174;11.756;2023-12-20T01:03:31;2.90;;;2.70;;
10232;SDS011;5161;48.174;11.756;2023-12-20T01:05:56;3.03;;;2.83;;
10232;SDS011;5161;48.174;11.756;2023-12-20T01:08:22;3.90;;;2.90;;
10232;SDS011;5161;48.174;11.756;2023-12-20T01:10:48;3.67;;;2.90;;
10232;SDS011;5161;48.174;11.756;2023-12-20T01:13:13;3.00;;;2.80;;
10232;SDS011;5161;48.174;11.756;2023-12-20T01:15:39;5.20;;;3.00;;
10232;SDS011;5161;48.174;11.756;2023-12-20T01:18:04;3.50;;;2.70;;
10232;SDS011;5161;48.174;11.756;2023-12-20T01:20:30;3.70;;;3.07;;
10232;SDS011;5161;48.174;11.756;2023-12-20T01:22:56;3.20;;;2.80;;
10232;SDS011;5161;48.174;11.756;2023-12-20T01:25:21;2.90;;;2.70;;
10232;SDS011;5161;48.174;11.756;2023-12-20T01:27:47;3.00;;;2.80;;
10232;SDS011;5161;48.174;11.756;2023-12-20T01:30:12;2.80;;;2.60;;
10232;SDS011;5161;48.174;11.756;2023-12-20T01:32:39;5.40;;;2.47;;
10232;SDS011;5161;48.174;11.756;2023-12-20T01:35:04;2.50;;;2.33;;
10232;SDS011;5161;48.174;11.756;2023-12-20T01:37:30;2.70;;;2.50;;
10232;SDS011;5161;48.174;11.756;2023-12-20T01:39:55;2.87;;;2.50;;
10232;SDS011;5161;48.174;11.756;2023-12-20T01:42:21;2.40;;;2.30;;
10232;SDS011;5161;48.174;11.756;2023-12-20T01:44:47;2.70;;;2.40;;
10232;SDS011;5161;48.174;11.756;2023-12-20T01:47:13;4.00;;;2.50;;
10232;SDS011;5161;48.174;11.756;2023-12-20T01:49:38;2.57;;;2.37;;
10232;SDS011;5161;48.174;11.756;2023-12-20T01:52:04;2.40;;;2.30;;
10232;SDS011;5161;48.174;11.756;2023-12-20T01:54:31;2.50;;;2.30;;
10232;SDS011;5161;48.174;11.756;2023-12-20T01:56:57;5.97;;;2.73;;
10232;SDS011;5161;48.174;11.756;2023-12-20T01:59:22;3.73;;;3.03;;
10232;SDS011;5161;48.174;11.756;2023-12-20T02:01:48;2.90;;;2.60;;
10232;SDS011;5161;48.174;11.756;2023-12-20T02:04:14;3.53;;;2.60;;
10232;SDS011;5161;48.174;11.756;2023-12-20T02:06:41;2.40;;;2.20;;
10232;SDS011;5161;48.174;11.756;2023-12-20T02:09:08;8.77;;;2.43;;
10232;SDS011;5161;48.174;11.756;2023-12-20T02:11:34;3.30;;;2.37;;
10232;SDS011;5161;48.174;11.756;2023-12-20T02:14:01;2.07;;;1.97;;
10232;SDS011;5161;48.174;11.756;2023-12-20T02:16:26;4.57;;;2.57;;
10232;SDS011;5161;48.174;11.756;2023-12-20T02:18:53;2.70;;;2.50;;
10232;SDS011;5161;48.174;11.756;2023-12-20T02:21:23;3.10;;;2.30;;
10232;SDS011;5161;48.174;11.756;2023-12-20T02:23:50;2.60;;;2.20;;
10232;SDS011;5161;48.174;11.756;2023-12-20T02:26:15;2.83;;;2.20;;
10232;SDS011;5161;48.174;11.756;2023-12-20T02:28:41;2.00;;;1.90;;
10232;SDS011;5161;48.174;11.756;2023-12-20T02:31:07;2.87;;;2.30;;
10232;SDS011;5161;48.174;11.756;2023-12-20T02:33:33;2.03;;;1.93;;
10232;SDS011;5161;48.174;11.756;2023-12-20T02:35:58;2.03;;;1.93;;
10232;SDS011;5161;48.174;11.756;2023-12-20T02:38:24;2.60;;;2.07;;
10232;SDS011;5161;48.174;11.756;2023-12-20T02:40:49;1.90;;;1.80;;
10232;SDS011;5161;48.174;11.756;2023-12-20T02:43:15;1.93;;;1.83;;
10232;SDS011;5161;48.174;11.756;2023-12-20T02:45:40;2.30;;;2.00;;
10232;SDS011;5161;48.174;11.756;2023-12-20T02:48:06;2.00;;;1.87;;
10232;SDS011;5161;48.174;11.756;2023-12-20T02:50:32;1.70;;;1.60;;
10232;SDS011;5161;48.174;11.756;2023-12-20T02:52:57;1.93;;;1.60;;
10232;SDS011;5161;48.174;11.756;2023-12-20T02:55:23;1.63;;;1.53;;
10232;SDS011;5161;48.174;11.756;2023-12-20T02:57:48;1.73;;;1.67;;
10232;SDS011;5161;48.174;11.756;2023-12-20T03:00:14;1.50;;;1.50;;
10232;SDS011;5161;48.174;11.756;2023-12-20T03:02:39;2.30;;;1.50;;
10232;SDS011;5161;48.174;11.756;2023-12-20T03:05:05;1.57;;;1.53;;
10232;SDS011;5161;48.174;11.756;2023-12-20T03:07:31;1.33;;;1.33;;
10232;SDS011;5161;48.174;11.756;2023-12-20T03:09:57;1.57;;;1.47;;
10232;SDS011;5161;48.174;11.756;2023-12-20T03:12:22;1.37;;;1.37;;
10232;SDS011;5161;48.174;11.756;2023-12-20T03:14:48;1.47;;;1.37;;
10232;SDS011;5161;48.174;11.756;2023-12-20T03:17:14;1.40;;;1.40;;
10232;SDS011;5161;48.174;11.756;2023-12-20T03:19:40;1.40;;;1.37;;
10232;SDS011;5161;48.174;11.756;2023-12-20T03:22:06;1.47;;;1.47;;
10232;SDS011;5161;48.174;11.756;2023-12-20T03:24:31;1.23;;;1.13;;
10232;SDS011;5161;48.174;11.756;2023-12-20T03:26:57;1.50;;;1.40;;
10232;SDS011;5161;48.174;11.756;2023-12-20T03:29:22;1.30;;;1.30;;
10232;SDS011;5161;48.174;11.756;2023-12-20T03:31:48;1.30;;;1.20;;
10232;SDS011;5161;48.174;11.756;2023-12-20T03:34:13;3.20;;;1.37;;
10232;SDS011;5161;48.174;11.756;2023-12-20T03:36:39;1.37;;;1.27;;
10232;SDS011;5161;48.174;11.756;2023-12-20T03:39:05;1.27;;;1.27;;
10232;SDS011;5161;48.174;11.756;2023-12-20T03:41:30;1.33;;;1.33;;
10232;SDS011;5161;48.174;11.756;2023-12-20T03:43:56;1.27;;;1.27;;
10232;SDS011;5161;48.174;11.756;2023-12-20T03:46:21;2.33;;;1.13;;
10232;SDS011;5161;48.174;11.756;2023-12-20T03:48:47;1.40;;;1.30;;
10232;SDS011;5161;48.174;11.756;2023-12-20T03:51:13;1.30;;;1.20;;
10232;SDS011;5161;48.174;11.756;2023-12-20T03:53:38;1.43;;;1.10;;
10232;SDS011;5161;48.174;11.756;2023-12-20T03:56:05;1.30;;;1.30;;
10232;SDS011;5161;48.174;11.756;2023-12-20T03:58:31;1.20;;;1.20;;
10232;SDS011;5161;48.174;11.756;2023-12-20T04:00:56;1.40;;;1.40;;
10232;SDS011;5161;48.174;11.756;2023-12-20T04:03:22;1.40;;;1.40;;
10232;SDS011;5161;48.174;11.756;2023-12-20T04:05:47;1.30;;;1.30;;
10232;SDS011;5161;48.174;11.756;2023-12-20T04:08:13;1.53;;;1.50;;
10232;SDS011;5161;48.174;11.756;2023-12-20T04:10:39;1.20;;;1.20;;
10232;SDS011;5161;48.174;11.756;2023-12-20T04:13:04;1.37;;;1.37;;
10232;SDS011;5161;48.174;11.756;2023-12-20T04:15:30;3.60;;;1.30;;
10232;SDS011;5161;48.174;11.756;2023-12-20T04:17:55;1.20;;;1.20;;
10232;SDS011;5161;48.174;11.756;2023-12-20T04:20:21;1.20;;;1.20;;
10232;SDS011;5161;48.174;11.756;2023-12-20T04:22:46;1.30;;;1.30;;
10232;SDS011;5161;48.174;11.756;2023-12-20T04:25:12;1.30;;;1.30;;
10232;SDS011;5161;48.174;11.756;2023-12-20T04:27:38;1.87;;;1.20;;
10232;SDS011;5161;48.174;11.756;2023-12-20T04:30:03;1.27;;;1.27;;
10232;SDS011;5161;48.174;11.756;2023-12-20T04:32:29;1.10;;;1.10;;
10232;SDS011;5161;48.174;11.756;2023-12-20T04:34:56;1.33;;;1.30;;
10232;SDS011;5161;48.174;11.756;2023-12-20T04:37:22;1.30;;;1.30;;
10232;SDS011;5161;48.174;11.756;2023-12-20T04:39:47;1.30;;;1.30;;
10232;SDS011;5161;48.174;11.756;2023-12-20T04:42:13;1.30;;;1.30;;
10232;SDS011;5161;48.174;11.756;2023-12-20T04:44:38;1.30;;;1.30;;
10232;SDS011;5161;48.174;11.756;2023-12-20T04:47:04;1.30;;;1.30;;
10232;SDS011;5161;48.174;11.756;2023-12-20T04:49:29;1.40;;;1.40;;
10232;SDS011;5161;48.174;11.756;2023-12-20T04:51:55;1.30;;;1.30;;
10232;SDS011;5161;48.174;11.756;2023-12-20T04:54:21;1.57;;;1.47;;
10232;SDS011;5161;48.174;11.756;2023-12-20T04:56:47;1.60;;;1.50;;
10232;SDS011;5161;48.174;11.756;2023-12-20T04:59:12;1.53;;;1.43;;
10232;SDS011;5161;48.174;11.756;2023-12-20T05:01:38;1.77;;;1.67;;
10232;SDS011;5161;48.174;11.756;2023-12-20T05:04:04;1.50;;;1.50;;
10232;SDS011;5161;48.174;11.756;2023-12-20T05:06:29;1.90;;;1.80;;
10232;SDS011;5161;48.174;11.756;2023-12-20T05:08:55;1.90;;;1.80;;
10232;SDS011;5161;48.174;11.756;2023-12-20T05:11:21;1.80;;;1.70;;
10232;SDS011;5161;48.174;11.756;2023-12-20T05:13:46;2.23;;;2.13;;
10232;SDS011;5161;48.174;11.756;2023-12-20T05:16:12;1.77;;;1.77;;
10232;SDS011;5161;48.174;11.756;2023-12-20T05:18:39;2.40;;;2.30;;
10232;SDS011;5161;48.174;11.756;2023-12-20T05:21:05;2.20;;;2.10;;
10232;SDS011;5161;48.174;11.756;2023-12-20T05:23:30;2.07;;;1.97;;
10232;SDS011;5161;48.174;11.756;2023-12-20T05:25:56;2.30;;;2.20;;
10232;SDS011;5161;48.174;11.756;2023-12-20T05:28:21;2.40;;;2.30;;
10232;SDS011;5161;48.174;11.756;2023-12-20T05:30:47;2.53;;;2.40;;
10232;SDS011;5161;48.174;11.756;2023-12-20T05:33:12;2.50;;;2.40;;
10232;SDS011;5161;48.174;11.756;2023-12-20T05:35:38;2.87;;;2.67;;
10232;SDS011;5161;48.174;11.756;2023-12-20T05:38:04;2.90;;;2.70;;
10232;SDS011;5161;48.174;11.756;2023-12-20T05:40:29;2.90;;;2.70;;
10232;SDS011;5161;48.174;11.756;2023-12-20T05:42:55;2.63;;;2.53;;
10232;SDS011;5161;48.174;11.756;2023-12-20T05:45:20;3.70;;;3.10;;
10232;SDS011;5161;48.174;11.756;2023-12-20T05:47:46;2.90;;;2.80;;
10232;SDS011;5161;48.174;11.756;2023-12-20T05:50:11;3.10;;;2.90;;
10232;SDS011;5161;48.174;11.756;2023-12-20T05:52:37;3.27;;;3.00;;
10232;SDS011;5161;48.174;11.756;2023-12-20T05:55:02;2.87;;;2.67;;
10232;SDS011;5161;48.174;11.756;2023-12-20T05:57:28;2.70;;;2.50;;
10232;SDS011;5161;48.174;11.756;2023-12-20T05:59:54;2.43;;;2.23;;
10232;SDS011;5161;48.174;11.756;2023-12-20T06:02:19;2.80;;;2.60;;
10232;SDS011;5161;48.174;11.756;2023-12-20T06:04:45;2.97;;;2.57;;
10232;SDS011;5161;48.174;11.756;2023-12-20T06:07:11;2.80;;;2.60;;
10232;SDS011;5161;48.174;11.756;2023-12-20T06:09:37;2.77;;;2.57;;
10232;SDS011;5161;48.174;11.756;2023-12-20T06:12:03;3.00;;;2.80;;
10232;SDS011;5161;48.174;11.756;2023-12-20T06:14:29;3.00;;;2.80;;
10232;SDS011;5161;48.174;11.756;2023-12-20T06:16:55;2.73;;;2.53;;
10232;SDS011;5161;48.174;11.756;2023-12-20T06:19:21;2.83;;;2.43;;
10232;SDS011;5161;48.174;11.756;2023-12-20T06:21:47;2.57;;;2.37;;
10232;SDS011;5161;48.174;11.756;2023-12-20T06:24:13;2.50;;;2.30;;
10232;SDS011;5161;48.174;11.756;2023-12-20T06:26:38;2.50;;;2.40;;
10232;SDS011;5161;48.174;11.756;2023-12-20T06:29:04;2.93;;;2.73;;
10232;SDS011;5161;48.174;11.756;2023-12-20T06:31:29;2.70;;;2.50;;
10232;SDS011;5161;48.174;11.756;2023-12-20T06:33:57;2.50;;;2.30;;
10232;SDS011;5161;48.174;11.756;2023-12-20T06:36:24;2.80;;;2.60;;
10232;SDS011;5161;48.174;11.756;2023-12-20T06:38:50;2.63;;;2.40;;
10232;SDS011;5161;48.174;11.756;2023-12-20T06:41:16;2.50;;;2.30;;
10232;SDS011;5161;48.174;11.756;2023-12-20T06:43:42;2.70;;;2.50;;
10232;SDS011;5161;48.174;11.756;2023-12-20T06:46:07;2.57;;;2.47;;
10232;SDS011;5161;48.174;11.756;2023-12-20T06:48:33;3.27;;;2.70;;
10232;SDS011;5161;48.174;11.756;2023-12-20T06:51:00;2.70;;;2.60;;
10232;SDS011;5161;48.174;11.756;2023-12-20T06:53:29;2.60;;;2.50;;
10232;SDS011;5161;48.174;11.756;2023-12-20T06:55:55;3.00;;;2.33;;
10232;SDS011;5161;48.174;11.756;2023-12-20T06:58:25;2.50;;;2.30;;
10232;SDS011;5161;48.174;11.756;2023-12-20T07:00:50;2.60;;;2.40;;
10232;SDS011;5161;48.174;11.756;2023-12-20T07:03:16;2.67;;;2.47;;
10232;SDS011;5161;48.174;11.756;2023-12-20T07:05:42;2.50;;;2.30;;
10232;SDS011;5161;48.174;11.756;2023-12-20T07:08:08;2.40;;;2.30;;
10232;SDS011;5161;48.174;11.756;2023-12-20T07:10:34;2.40;;;2.20;;
10232;SDS011;5161;48.174;11.756;2023-12-20T07:12:59;2.07;;;1.97;;
10232;SDS011;5161;48.174;11.756;2023-12-20T07:15:25;3.00;;;2.50;;
10232;SDS011;5161;48.174;11.756;2023-12-20T07:17:51;2.90;;;2.27;;
10232;SDS011;5161;48.174;11.756;2023-12-20T07:20:18;2.20;;;2.10;;
10232;SDS011;5161;48.174;11.756;2023-12-20T07:22:44;2.20;;;2.10;;
10232;SDS011;5161;48.174;11.756;2023-12-20T07:25:09;2.33;;;2.20;;
10232;SDS011;5161;48.174;11.756;2023-12-20T07:27:35;2.33;;;2.13;;
10232;SDS011;5161;48.174;11.756;2023-12-20T07:30:01;2.30;;;2.20;;
10232;SDS011;5161;48.174;11.756;2023-12-20T07:32:27;2.30;;;2.10;;
10232;SDS011;5161;48.174;11.756;2023-12-20T07:34:52;2.00;;;1.90;;
10232;SDS011;5161;48.174;11.756;2023-12-20T07:37:19;2.33;;;1.70;;
10232;SDS011;5161;48.174;11.756;2023-12-20T07:39:46;2.00;;;1.80;;
10232;SDS011;5161;48.174;11.756;2023-12-20T07:42:11;2.00;;;1.90;;
10232;SDS011;5161;48.174;11.756;2023-12-20T07:44:37;2.17;;;1.97;;
10232;SDS011;5161;48.174;11.756;2023-12-20T07:47:02;2.07;;;1.97;;
10232;SDS011;5161;48.174;11.756;2023-12-20T07:49:28;1.93;;;1.77;;
10232;SDS011;5161;48.174;11.756;2023-12-20T07:51:54;1.60;;;1.50;;
10232;SDS011;5161;48.174;11.756;2023-12-20T07:54:20;1.80;;;1.70;;
10232;SDS011;5161;48.174;11.756;2023-12-20T07:56:46;2.17;;;1.70;;
10232;SDS011;5161;48.174;11.756;2023-12-20T07:59:12;1.63;;;1.53;;
10232;SDS011;5161;48.174;11.756;2023-12-20T08:01:37;2.70;;;1.67;;
10232;SDS011;5161;48.174;11.756;2023-12-20T08:04:03;1.53;;;1.50;;
10232;SDS011;5161;48.174;11.756;2023-12-20T08:06:28;1.70;;;1.60;;
10232;SDS011;5161;48.174;11.756;2023-12-20T08:08:54;1.60;;;1.50;;
10232;SDS011;5161;48.174;11.756;2023-12-20T08:11:19;1.20;;;1.20;;
10232;SDS011;5161;48.174;11.756;2023-12-20T08:13:45;1.40;;;1.30;;
10232;SDS011;5161;48.174;11.756;2023-12-20T08:16:11;1.40;;;1.30;;
10232;SDS011;5161;48.174;11.756;2023-12-20T08:18:38;1.50;;;1.40;;
10232;SDS011;5161;48.174;11.756;2023-12-20T08:21:04;1.40;;;1.40;;
10232;SDS011;5161;48.174;11.756;2023-12-20T08:23:32;1.50;;;1.50;;
10232;SDS011;5161;48.174;11.756;2023-12-20T08:25:58;1.63;;;1.53;;
10232;SDS011;5161;48.174;11.756;2023-12-20T08:28:23;2.53;;;1.40;;
10232;SDS011;5161;48.174;11.756;2023-12-20T08:30:49;1.60;;;1.50;;
10232;SDS011;5161;48.174;11.756;2023-12-20T08:33:18;3.43;;;1.70;;
10232;SDS011;5161;48.174;11.756;2023-12-20T08:35:44;1.40;;;1.40;;
10232;SDS011;5161;48.174;11.756;2023-12-20T08:38:09;1.60;;;1.50;;
10232;SDS011;5161;48.174;11.756;2023-12-20T08:40:35;1.40;;;1.40;;
10232;SDS011;5161;48.174;11.756;2023-12-20T08:43:00;1.60;;;1.50;;
10232;SDS011;5161;48.174;11.756;2023-12-20T08:45:26;1.30;;;1.30;;
10232;SDS011;5161;48.174;11.756;2023-12-20T08:47:52;1.30;;;1.30;;
10232;SDS011;5161;48.174;11.756;2023-12-20T08:50:17;1.43;;;1.33;;
10232;SDS011;5161;48.174;11.756;2023-12-20T08:52:43;2.20;;;1.40;;
10232;SDS011;5161;48.174;11.756;2023-12-20T08:55:08;4.20;;;1.60;;
10232;SDS011;5161;48.174;11.756;2023-12-20T08:57:35;2.30;;;1.40;;
10232;SDS011;5161;48.174;11.756;2023-12-20T09:00:01;1.30;;;1.30;;
10232;SDS011;5161;48.174;11.756;2023-12-20T09:02:27;1.43;;;1.33;;
10232;SDS011;5161;48.174;11.756;2023-12-20T09:04:52;1.20;;;1.20;;
10232;SDS011;5161;48.174;11.756;2023-12-20T09:07:24;1.57;;;1.47;;
10232;SDS011;5161;48.174;11.756;2023-12-20T09:09:51;2.63;;;1.50;;
10232;SDS011;5161;48.174;11.756;2023-12-20T09:12:20;1.43;;;1.33;;
10232;SDS011;5161;48.174;11.756;2023-12-20T09:14:47;1.20;;;1.20;;
10232;SDS011;5161;48.174;11.756;2023-12-20T09:17:13;1.63;;;1.50;;
10232;SDS011;5161;48.174;11.756;2023-12-20T09:19:40;1.77;;;1.70;;
10232;SDS011;5161;48.174;11.756;2023-12-20T09:22:06;1.40;;;1.40;;
10232;SDS011;5161;48.174;11.756;2023-12-20T09:24:32;1.90;;;1.80;;
10232;SDS011;5161;48.174;11.756;2023-12-20T09:26:58;2.63;;;2.40;;
10232;SDS011;5161;48.174;11.756;2023-12-20T09:29:23;1.50;;;1.50;;
10232;SDS011;5161;48.174;11.756;2023-12-20T09:31:49;2.50;;;2.40;;
10232;SDS011;5161;48.174;11.756;2023-12-20T09:34:15;2.20;;;2.10;;
10232;SDS011;5161;48.174;11.756;2023-12-20T09:36:42;2.17;;;2.07;;
10232;SDS011;5161;48.174;11.756;2023-12-20T09:39:12;1.87;;;1.77;;
10232;SDS011;5161;48.174;11.756;2023-12-20T09:41:40;3.23;;;2.97;;
10232;SDS011;5161;48.174;11.756;2023-12-20T09:44:08;2.40;;;2.20;;
10232;SDS011;5161;48.174;11.756;2023-12-20T09:46:39;2.10;;;1.90;;
10232;SDS011;5161;48.174;11.756;2023-12-20T09:49:09;2.40;;;2.30;;
10232;SDS011;5161;48.174;11.756;2023-12-20T09:51:35;2.30;;;2.20;;
10232;SDS011;5161;48.174;11.756;2023-12-20T09:54:03;2.10;;;2.00;;
10232;SDS011;5161;48.174;11.756;2023-12-20T09:56:29;2.20;;;2.10;;
10232;SDS011;5161;48.174;11.756;2023-12-20T09:58:55;2.30;;;2.20;;
10232;SDS011;5161;48.174;11.756;2023-12-20T10:01:21;2.53;;;2.37;;
10232;SDS011;5161;48.174;11.756;2023-12-20T10:03:47;2.43;;;2.23;;
10232;SDS011;5161;48.174;11.756;2023-12-20T10:06:12;2.10;;;2.00;;
10232;SDS011;5161;48.174;11.756;2023-12-20T10:08:38;2.53;;;2.40;;
10232;SDS011;5161;48.174;11.756;2023-12-20T10:11:04;2.27;;;2.17;;
10232;SDS011;5161;48.174;11.756;2023-12-20T10:13:30;2.47;;;2.37;;
10232;SDS011;5161;48.174;11.756;2023-12-20T10:15:56;2.50;;;2.30;;
10232;SDS011;5161;48.174;11.756;2023-12-20T10:18:22;2.30;;;2.20;;
10232;SDS011;5161;48.174;11.756;2023-12-20T10:20:48;2.40;;;2.20;;
10232;SDS011;5161;48.174;11.756;2023-12-20T10:23:14;2.00;;;1.90;;
10232;SDS011;5161;48.174;11.756;2023-12-20T10:25:40;2.50;;;2.30;;
10232;SDS011;5161;48.174;11.756;2023-12-20T10:28:13;2.30;;;2.20;;
10232;SDS011;5161;48.174;11.756;2023-12-20T10:30:43;2.37;;;2.27;;
10232;SDS011;5161;48.174;11.756;2023-12-20T10:33:09;3.00;;;2.80;;
10232;SDS011;5161;48.174;11.756;2023-12-20T10:35:35;3.10;;;2.90;;
10232;SDS011;5161;48.174;11.756;2023-12-20T10:38:03;3.40;;;3.20;;
10232;SDS011;5161;48.174;11.756;2023-12-20T10:40:30;2.70;;;2.50;;
10232;SDS011;5161;48.174;11.756;2023-12-20T10:42:58;3.33;;;3.03;;
10232;SDS011;5161;48.174;11.756;2023-12-20T10:45:24;2.40;;;2.30;;
10232;SDS011;5161;48.174;11.756;2023-12-20T10:47:50;2.20;;;2.10;;
10232;SDS011;5161;48.174;11.756;2023-12-20T10:50:16;2.33;;;2.13;;
10232;SDS011;5161;48.174;11.756;2023-12-20T10:52:44;2.00;;;1.90;;
10232;SDS011;5161;48.174;11.756;2023-12-20T10:55:11;2.17;;;2.07;;
10232;SDS011;5161;48.174;11.756;2023-12-20T10:57:37;2.40;;;1.90;;
10232;SDS011;5161;48.174;11.756;2023-12-20T11:00:04;1.97;;;1.87;;
10232;SDS011;5161;48.174;11.756;2023-12-20T11:02:35;1.73;;;1.63;;
10232;SDS011;5161;48.174;11.756;2023-12-20T11:07:48;2.03;;;1.93;;
10232;SDS011;5161;48.174;11.756;2023-12-20T11:10:26;1.83;;;1.80;;
10232;SDS011;5161;48.174;11.756;2023-12-20T11:15:42;1.97;;;1.87;;
10232;SDS011;5161;48.174;11.756;2023-12-20T11:18:08;2.80;;;1.90;;
10232;SDS011;5161;48.174;11.756;2023-12-20T11:20:37;1.97;;;1.80;;
10232;SDS011;5161;48.174;11.756;2023-12-20T11:23:04;2.10;;;2.00;;
10232;SDS011;5161;48.174;11.756;2023-12-20T11:25:35;2.33;;;2.23;;
10232;SDS011;5161;48.174;11.756;2023-12-20T11:28:16;2.30;;;2.10;;
10232;SDS011;5161;48.174;11.756;2023-12-20T11:33:12;2.20;;;2.10;;
10232;SDS011;5161;48.174;11.756;2023-12-20T11:35:39;2.93;;;2.10;;
10232;SDS011;5161;48.174;11.756;2023-12-20T11:38:07;2.53;;;2.33;;
10232;SDS011;5161;48.174;11.756;2023-12-20T11:40:34;2.20;;;2.10;;
10232;SDS011;5161;48.174;11.756;2023-12-20T11:43:00;2.10;;;2.00;;
10232;SDS011;5161;48.174;11.756;2023-12-20T11:45:26;1.93;;;1.83;;
10232;SDS011;5161;48.174;11.756;2023-12-20T11:47:52;2.03;;;1.93;;
10232;SDS011;5161;48.174;11.756;2023-12-20T11:50:21;2.10;;;2.00;;
10232;SDS011;5161;48.174;11.756;2023-12-20T11:52:48;2.50;;;2.30;;
10232;SDS011;5161;48.174;11.756;2023-12-20T11:55:15;1.90;;;1.80;;
10232;SDS011;5161;48.174;11.756;2023-12-20T11:57:41;4.37;;;1.90;;
10232;SDS011;5161;48.174;11.756;2023-12-20T12:00:08;1.90;;;1.80;;
10232;SDS011;5161;48.174;11.756;2023-12-20T12:02:34;2.47;;;2.27;;
10232;SDS011;5161;48.174;11.756;2023-12-20T12:04:59;2.20;;;2.10;;
10232;SDS011;5161;48.174;11.756;2023-12-20T12:07:25;3.53;;;2.93;;
10232;SDS011;5161;48.174;11.756;2023-12-20T12:09:50;7.73;;;2.77;;
10232;SDS011;5161;48.174;11.756;2023-12-20T12:12:16;14.37;;;3.90;;
10232;SDS011;5161;48.174;11.756;2023-12-20T12:14:44;2.13;;;2.03;;
10232;SDS011;5161;48.174;11.756;2023-12-20T12:17:10;3.07;;;2.60;;
10232;SDS011;5161;48.174;11.756;2023-12-20T12:19:37;2.53;;;2.43;;
10232;SDS011;5161;48.174;11.756;2023-12-20T12:22:04;3.10;;;2.83;;
10232;SDS011;5161;48.174;11.756;2023-12-20T12:24:37;2.60;;;2.40;;
10232;SDS011;5161;48.174;11.756;2023-12-20T12:27:05;2.30;;;2.20;;
10232;SDS011;5161;48.174;11.756;2023-12-20T12:29:31;2.40;;;2.30;;
10232;SDS011;5161;48.174;11.756;2023-12-20T12:31:57;2.60;;;2.50;;
10232;SDS011;5161;48.174;11.756;2023-12-20T12:34:23;2.10;;;2.00;;
10232;SDS011;5161;48.174;11.756;2023-12-20T12:36:48;2.70;;;2.27;;
10232;SDS011;5161;48.174;11.756;2023-12-20T12:39:14;2.43;;;2.23;;
10232;SDS011;5161;48.174;11.756;2023-12-20T12:41:40;2.40;;;2.30;;
10232;SDS011;5161;48.174;11.756;2023-12-20T12:44:06;2.50;;;2.40;;
10232;SDS011;5161;48.174;11.756;2023-12-20T12:46:32;2.60;;;2.50;;
10232;SDS011;5161;48.174;11.756;2023-12-20T12:48:57;2.10;;;2.00;;
10232;SDS011;5161;48.174;11.756;2023-12-20T12:51:23;2.63;;;2.50;;
10232;SDS011;5161;48.174;11.756;2023-12-20T12:53:49;2.53;;;2.33;;
10232;SDS011;5161;48.174;11.756;2023-12-20T12:56:14;2.40;;;2.30;;
10232;SDS011;5161;48.174;11.756;2023-12-20T12:58:40;4.60;;;2.50;;
10232;SDS011;5161;48.174;11.756;2023-12-20T13:01:06;2.40;;;2.23;;
10232;SDS011;5161;48.174;11.756;2023-12-20T13:03:32;2.50;;;2.40;;
10232;SDS011;5161;48.174;11.756;2023-12-20T13:05:57;2.93;;;2.73;;
10232;SDS011;5161;48.174;11.756;2023-12-20T13:08:23;2.60;;;2.50;;
10232;SDS011;5161;48.174;11.756;2023-12-20T13:10:49;2.77;;;2.67;;
10232;SDS011;5161;48.174;11.756;2023-12-20T13:13:14;3.33;;;3.03;;
10232;SDS011;5161;48.174;11.756;2023-12-20T13:15:40;3.10;;;2.90;;
10232;SDS011;5161;48.174;11.756;2023-12-20T13:18:05;2.73;;;2.60;;
10232;SDS011;5161;48.174;11.756;2023-12-20T13:20:31;2.57;;;2.47;;
10232;SDS011;5161;48.174;11.756;2023-12-20T13:22:58;2.10;;;2.00;;
10232;SDS011;5161;48.174;11.756;2023-12-20T13:25:24;2.50;;;2.30;;
10232;SDS011;5161;48.174;11.756;2023-12-20T13:27:49;2.40;;;2.20;;
10232;SDS011;5161;48.174;11.756;2023-12-20T13:30:18;2.53;;;2.30;;
10232;SDS011;5161;48.174;11.756;2023-12-20T13:32:43;2.50;;;2.30;;
10232;SDS011;5161;48.174;11.756;2023-12-20T13:35:09;3.20;;;2.90;;
10232;SDS011;5161;48.174;11.756;2023-12-20T13:37:34;2.93;;;2.73;;
10232;SDS011;5161;48.174;11.756;2023-12-20T13:40:00;2.97;;;2.60;;
10232;SDS011;5161;48.174;11.756;2023-12-20T13:42:28;3.23;;;2.60;;
10232;SDS011;5161;48.174;11.756;2023-12-20T13:44:53;3.70;;;2.67;;
10232;SDS011;5161;48.174;11.756;2023-12-20T13:47:19;2.90;;;2.57;;
10232;SDS011;5161;48.174;11.756;2023-12-20T13:49:47;2.90;;;2.70;;
10232;SDS011;5161;48.174;11.756;2023-12-20T13:52:13;2.70;;;2.50;;
10232;SDS011;5161;48.174;11.756;2023-12-20T13:54:38;2.73;;;2.53;;
10232;SDS011;5161;48.174;11.756;2023-12-20T13:57:04;4.03;;;2.50;;
10232;SDS011;5161;48.174;11.756;2023-12-20T13:59:30;3.60;;;2.67;;
10232;SDS011;5161;48.174;11.756;2023-12-20T14:01:55;2.90;;;2.70;;
10232;SDS011;5161;48.174;11.756;2023-12-20T14:04:22;2.90;;;2.70;;
10232;SDS011;5161;48.174;11.756;2023-12-20T14:06:47;2.93;;;2.40;;
10232;SDS011;5161;48.174;11.756;2023-12-20T14:09:13;4.57;;;3.40;;
10232;SDS011;5161;48.174;11.756;2023-12-20T14:11:39;5.23;;;3.27;;
10232;SDS011;5161;48.174;11.756;2023-12-20T14:14:06;5.30;;;3.40;;
10232;SDS011;5161;48.174;11.756;2023-12-20T14:16:32;5.00;;;2.83;;
10232;SDS011;5161;48.174;11.756;2023-12-20T14:19:01;7.90;;;3.53;;
10232;SDS011;5161;48.174;11.756;2023-12-20T14:21:28;4.03;;;3.20;;
10232;SDS011;5161;48.174;11.756;2023-12-20T14:23:53;3.00;;;2.70;;
10232;SDS011;5161;48.174;11.756;2023-12-20T14:26:19;2.90;;;2.70;;
10232;SDS011;5161;48.174;11.756;2023-12-20T14:28:45;4.60;;;3.00;;
10232;SDS011;5161;48.174;11.756;2023-12-20T14:31:10;4.07;;;3.30;;
10232;SDS011;5161;48.174;11.756;2023-12-20T14:33:37;4.67;;;3.30;;
10232;SDS011;5161;48.174;11.756;2023-12-20T14:36:04;7.67;;;3.37;;
10232;SDS011;5161;48.174;11.756;2023-12-20T14:38:31;3.63;;;3.20;;
10232;SDS011;5161;48.174;11.756;2023-12-20T14:40:56;3.63;;;2.80;;
10232;SDS011;5161;48.174;11.756;2023-12-20T14:43:22;3.70;;;2.57;;
10232;SDS011;5161;48.174;11.756;2023-12-20T14:45:48;3.93;;;3.27;;
10232;SDS011;5161;48.174;11.756;2023-12-20T14:48:13;3.90;;;2.67;;